PWSweather.com
Personal Weather Stations
Station Observations
WD4JKH
Forsyth, GA 31029

Forsyth, GA 31029

Lat: 33.033225, Lon: -83.927995

Elevation: 709

Station Type: Davis Vantage VUE

High Low Average
Temperature 70.0°F21.1°C 55.8°F13.2°C 62.2°F16.8°C
Dew Point 59.7°F15.4°C 53.1°F11.7°C 56.6°F13.7°C
Winds 3.4 mph 5.5 kmh Calm Calm 1.0 mph SW1.6 kmh SW
Wind Gusts 7.0 mph11.3 kmh -- 3.0 mph4.8 kmh
Humidity 92% 67% 82%
Pressure 30.25 in1024.4 mb 30.05 in1017.6 mb -
Precipitation 0.00 in0.0 mm - -
Hour Temp Dew Point Humidity Winds Wind Gusts Pressure Precip Precip Rate Daily Precip Total
12:02 AM 59.3°F15.2°C 53.5°F11.9°C 81% 1.2 mph SW1.9 kmh SW 4.0 mph6.4 kmh 30.24 in1024.0 mb 0.00 in0.0 mm 0.00 in0.0 mm 0.00 in0.0 mm
12:07 AM 59.2°F15.1°C 53.7°F12.1°C 82% 1.2 mph SW1.9 kmh SW 4.0 mph6.4 kmh 30.24 in1024.0 mb 0.00 in0.0 mm 0.00 in0.0 mm 0.00 in0.0 mm
12:12 AM 59.2°F15.1°C 53.7°F12.1°C 82% 1.5 mph SW2.4 kmh SW 3.0 mph4.8 kmh 30.25 in1024.4 mb 0.00 in0.0 mm 0.00 in0.0 mm 0.00 in0.0 mm
12:17 AM 59.2°F15.1°C 53.7°F12.1°C 82% Calm Calm 3.0 mph4.8 kmh 30.25 in1024.4 mb 0.00 in0.0 mm 0.00 in0.0 mm 0.00 in0.0 mm
12:22 AM 59.2°F15.1°C 53.7°F12.1°C 82% 1.0 mph SW1.6 kmh SW 3.0 mph4.8 kmh 30.25 in1024.4 mb 0.00 in0.0 mm 0.00 in0.0 mm 0.00 in0.0 mm
12:27 AM 59.2°F15.1°C 53.7°F12.1°C 82% 1.0 mph S1.6 kmh S 3.0 mph4.8 kmh 30.24 in1024.0 mb 0.00 in0.0 mm 0.00 in0.0 mm 0.00 in0.0 mm
12:32 AM 59.2°F15.1°C 54.1°F12.3°C 83% 1.3 mph S2.1 kmh S 2.0 mph3.2 kmh 30.24 in1024.0 mb 0.00 in0.0 mm 0.00 in0.0 mm 0.00 in0.0 mm
12:37 AM 59.3°F15.2°C 54.2°F12.3°C 83% 1.4 mph S2.3 kmh S 3.0 mph4.8 kmh 30.23 in1023.7 mb 0.00 in0.0 mm 0.00 in0.0 mm 0.00 in0.0 mm
12:42 AM 59.3°F15.2°C 54.2°F12.3°C 83% 1.0 mph S1.6 kmh S 3.0 mph4.8 kmh 30.24 in1024.0 mb 0.00 in0.0 mm 0.00 in0.0 mm 0.00 in0.0 mm
12:47 AM 59.3°F15.2°C 54.2°F12.3°C 83% 1.0 mph S1.6 kmh S 3.0 mph4.8 kmh 30.23 in1023.7 mb 0.00 in0.0 mm 0.00 in0.0 mm 0.00 in0.0 mm
12:52 AM 59.3°F15.2°C 54.2°F12.3°C 83% 2.0 mph S3.2 kmh S 4.0 mph6.4 kmh 30.23 in1023.7 mb 0.00 in0.0 mm 0.00 in0.0 mm 0.00 in0.0 mm
12:57 AM 59.4°F15.2°C 54.3°F12.4°C 83% 1.2 mph S1.9 kmh S 4.0 mph6.4 kmh 30.23 in1023.7 mb 0.00 in0.0 mm 0.00 in0.0 mm 0.00 in0.0 mm
01:02 AM 59.4°F15.2°C 54.2°F12.3°C 83% 1.3 mph S2.1 kmh S 4.0 mph6.4 kmh 30.23 in1023.7 mb 0.00 in0.0 mm 0.00 in0.0 mm 0.00 in0.0 mm
01:07 AM 59.3°F15.2°C 54.1°F12.3°C 83% 1.7 mph S2.7 kmh S 4.0 mph6.4 kmh 30.22 in1023.4 mb 0.00 in0.0 mm 0.00 in0.0 mm 0.00 in0.0 mm
01:12 AM 59.3°F15.2°C 54.2°F12.3°C 83% 1.0 mph SE1.6 kmh SE 3.0 mph4.8 kmh 30.22 in1023.4 mb 0.00 in0.0 mm 0.00 in0.0 mm 0.00 in0.0 mm
01:17 AM 59.3°F15.2°C 54.2°F12.3°C 83% 1.6 mph S2.6 kmh S 3.0 mph4.8 kmh 30.22 in1023.4 mb 0.00 in0.0 mm 0.00 in0.0 mm 0.00 in0.0 mm
01:22 AM 59.3°F15.2°C 54.2°F12.3°C 83% 1.5 mph S2.4 kmh S 5.0 mph8.0 kmh 30.22 in1023.4 mb 0.00 in0.0 mm 0.00 in0.0 mm 0.00 in0.0 mm
01:27 AM 59.3°F15.2°C 54.5°F12.5°C 84% 1.0 mph S1.6 kmh S 5.0 mph8.0 kmh 30.22 in1023.4 mb 0.00 in0.0 mm 0.00 in0.0 mm 0.00 in0.0 mm
01:32 AM 59.3°F15.2°C 54.5°F12.5°C 84% 1.9 mph S3.1 kmh S 5.0 mph8.0 kmh 30.22 in1023.4 mb 0.00 in0.0 mm 0.00 in0.0 mm 0.00 in0.0 mm
01:37 AM 59.3°F15.2°C 54.5°F12.5°C 84% 1.4 mph SSE2.3 kmh SSE 5.0 mph8.0 kmh 30.22 in1023.4 mb 0.00 in0.0 mm 0.00 in0.0 mm 0.00 in0.0 mm
01:42 AM 59.3°F15.2°C 54.5°F12.5°C 84% 2.6 mph SSE4.2 kmh SSE 7.0 mph11.3 kmh 30.22 in1023.4 mb 0.00 in0.0 mm 0.00 in0.0 mm 0.00 in0.0 mm
01:46 AM 59.3°F15.2°C 54.5°F12.5°C 84% 1.9 mph SSE3.1 kmh SSE 7.0 mph11.3 kmh 30.21 in1023.0 mb 0.00 in0.0 mm 0.00 in0.0 mm 0.00 in0.0 mm
01:51 AM 59.3°F15.2°C 54.5°F12.5°C 84% 2.3 mph SSE3.7 kmh SSE 7.0 mph11.3 kmh 30.21 in1023.0 mb 0.00 in0.0 mm 0.00 in0.0 mm 0.00 in0.0 mm
01:56 AM 59.2°F15.1°C 54.4°F12.4°C 84% 2.4 mph S3.9 kmh S 7.0 mph11.3 kmh 30.21 in1023.0 mb 0.00 in0.0 mm 0.00 in0.0 mm 0.00 in0.0 mm
02:01 AM 59.2°F15.1°C 54.4°F12.4°C 84% 3.0 mph S4.8 kmh S 7.0 mph11.3 kmh 30.21 in1023.0 mb 0.00 in0.0 mm 0.00 in0.0 mm 0.00 in0.0 mm
02:06 AM 59.1°F15.1°C 54.3°F12.4°C 84% 1.8 mph S2.9 kmh S 7.0 mph11.3 kmh 30.20 in1022.7 mb 0.00 in0.0 mm 0.00 in0.0 mm 0.00 in0.0 mm
02:11 AM 59.0°F15.0°C 54.2°F12.3°C 84% 1.9 mph S3.1 kmh S 7.0 mph11.3 kmh 30.20 in1022.7 mb 0.00 in0.0 mm 0.00 in0.0 mm 0.00 in0.0 mm
02:16 AM 58.9°F14.9°C 54.4°F12.4°C 85% 2.3 mph S3.7 kmh S 7.0 mph11.3 kmh 30.20 in1022.7 mb 0.00 in0.0 mm 0.00 in0.0 mm 0.00 in0.0 mm
02:21 AM 58.7°F14.8°C 54.2°F12.3°C 85% 2.5 mph S4.0 kmh S 7.0 mph11.3 kmh 30.20 in1022.7 mb 0.00 in0.0 mm 0.00 in0.0 mm 0.00 in0.0 mm
02:26 AM 58.6°F14.8°C 54.1°F12.3°C 85% 2.2 mph S3.5 kmh S 7.0 mph11.3 kmh 30.20 in1022.7 mb 0.00 in0.0 mm 0.00 in0.0 mm 0.00 in0.0 mm
02:31 AM 58.4°F14.7°C 54.2°F12.3°C 86% 2.1 mph SSW3.4 kmh SSW 6.0 mph9.7 kmh 30.20 in1022.7 mb 0.00 in0.0 mm 0.00 in0.0 mm 0.00 in0.0 mm
02:36 AM 58.2°F14.6°C 54.0°F12.2°C 86% 1.6 mph S2.6 kmh S 7.0 mph11.3 kmh 30.20 in1022.7 mb 0.00 in0.0 mm 0.00 in0.0 mm 0.00 in0.0 mm
02:41 AM 58.0°F14.4°C 53.8°F12.1°C 86% 1.1 mph S1.8 kmh S 7.0 mph11.3 kmh 30.19 in1022.4 mb 0.00 in0.0 mm 0.00 in0.0 mm 0.00 in0.0 mm
02:46 AM 57.8°F14.3°C 53.9°F12.2°C 87% 1.5 mph S2.4 kmh S 7.0 mph11.3 kmh 30.19 in1022.4 mb 0.00 in0.0 mm 0.00 in0.0 mm 0.00 in0.0 mm
02:51 AM 57.8°F14.3°C 53.9°F12.2°C 87% 1.6 mph S2.6 kmh S 7.0 mph11.3 kmh 30.19 in1022.4 mb 0.00 in0.0 mm 0.00 in0.0 mm 0.00 in0.0 mm
02:56 AM 57.7°F14.3°C 53.8°F12.1°C 87% 2.0 mph S3.2 kmh S 4.0 mph6.4 kmh 30.19 in1022.4 mb 0.00 in0.0 mm 0.00 in0.0 mm 0.00 in0.0 mm
03:01 AM 57.6°F14.2°C 53.7°F12.1°C 87% 1.7 mph S2.7 kmh S 4.0 mph6.4 kmh 30.19 in1022.4 mb 0.00 in0.0 mm 0.00 in0.0 mm 0.00 in0.0 mm
03:06 AM 57.4°F14.1°C 53.9°F12.2°C 88% 1.4 mph SSW2.3 kmh SSW 4.0 mph6.4 kmh 30.19 in1022.4 mb 0.00 in0.0 mm 0.00 in0.0 mm 0.00 in0.0 mm
03:11 AM 57.3°F14.1°C 53.8°F12.1°C 88% 1.3 mph SSW2.1 kmh SSW 4.0 mph6.4 kmh 30.19 in1022.4 mb 0.00 in0.0 mm 0.00 in0.0 mm 0.00 in0.0 mm
03:16 AM 57.2°F14.0°C 53.7°F12.1°C 88% 1.3 mph SW2.1 kmh SW 4.0 mph6.4 kmh 30.19 in1022.4 mb 0.00 in0.0 mm 0.00 in0.0 mm 0.00 in0.0 mm
03:21 AM 57.0°F13.9°C 53.8°F12.1°C 89% 1.0 mph SSW1.6 kmh SSW 3.0 mph4.8 kmh 30.19 in1022.4 mb 0.00 in0.0 mm 0.00 in0.0 mm 0.00 in0.0 mm
03:26 AM 56.9°F13.8°C 53.7°F12.1°C 89% 1.0 mph SW1.6 kmh SW 2.0 mph3.2 kmh 30.19 in1022.4 mb 0.00 in0.0 mm 0.00 in0.0 mm 0.00 in0.0 mm
03:31 AM 56.8°F13.8°C 53.6°F12.0°C 89% Calm Calm 2.0 mph3.2 kmh 30.19 in1022.4 mb 0.00 in0.0 mm 0.00 in0.0 mm 0.00 in0.0 mm
03:36 AM 56.8°F13.8°C 53.6°F12.0°C 89% 1.0 mph SW1.6 kmh SW 2.0 mph3.2 kmh 30.19 in1022.4 mb 0.00 in0.0 mm 0.00 in0.0 mm 0.00 in0.0 mm
03:41 AM 56.8°F13.8°C 53.6°F12.0°C 89% Calm Calm 2.0 mph3.2 kmh 30.19 in1022.4 mb 0.00 in0.0 mm 0.00 in0.0 mm 0.00 in0.0 mm
03:46 AM 56.7°F13.7°C 53.5°F11.9°C 89% Calm Calm 2.0 mph3.2 kmh 30.19 in1022.4 mb 0.00 in0.0 mm 0.00 in0.0 mm 0.00 in0.0 mm
03:51 AM 56.6°F13.7°C 53.4°F11.9°C 89% Calm Calm 1.0 mph1.6 kmh 30.19 in1022.4 mb 0.00 in0.0 mm 0.00 in0.0 mm 0.00 in0.0 mm
03:56 AM 56.5°F13.6°C 53.3°F11.8°C 89% Calm Calm 1.0 mph1.6 kmh 30.18 in1022.0 mb 0.00 in0.0 mm 0.00 in0.0 mm 0.00 in0.0 mm
04:01 AM 56.4°F13.6°C 53.5°F11.9°C 90% Calm Calm 1.0 mph1.6 kmh 30.18 in1022.0 mb 0.00 in0.0 mm 0.00 in0.0 mm 0.00 in0.0 mm
04:06 AM 56.2°F13.4°C 53.3°F11.8°C 90% Calm Calm -- 30.18 in1022.0 mb 0.00 in0.0 mm 0.00 in0.0 mm 0.00 in0.0 mm
04:11 AM 56.2°F13.4°C 53.3°F11.8°C 90% Calm Calm -- 30.18 in1022.0 mb 0.00 in0.0 mm 0.00 in0.0 mm 0.00 in0.0 mm
04:16 AM 56.2°F13.4°C 53.6°F12.0°C 91% Calm Calm -- 30.18 in1022.0 mb 0.00 in0.0 mm 0.00 in0.0 mm 0.00 in0.0 mm
04:21 AM 56.1°F13.4°C 53.2°F11.8°C 90% Calm Calm -- 30.18 in1022.0 mb 0.00 in0.0 mm 0.00 in0.0 mm 0.00 in0.0 mm
04:26 AM 56.0°F13.3°C 53.1°F11.7°C 90% Calm Calm -- 30.18 in1022.0 mb 0.00 in0.0 mm 0.00 in0.0 mm 0.00 in0.0 mm
04:31 AM 55.9°F13.3°C 53.3°F11.8°C 91% Calm Calm -- 30.18 in1022.0 mb 0.00 in0.0 mm 0.00 in0.0 mm 0.00 in0.0 mm
04:36 AM 55.8°F13.2°C 53.2°F11.8°C 91% 1.0 mph SW1.6 kmh SW 1.0 mph1.6 kmh 30.19 in1022.4 mb 0.00 in0.0 mm 0.00 in0.0 mm 0.00 in0.0 mm
04:41 AM 55.9°F13.3°C 53.3°F11.8°C 91% 1.0 mph SSE1.6 kmh SSE 2.0 mph3.2 kmh 30.19 in1022.4 mb 0.00 in0.0 mm 0.00 in0.0 mm 0.00 in0.0 mm
04:46 AM 56.1°F13.4°C 53.5°F11.9°C 91% Calm Calm 2.0 mph3.2 kmh 30.19 in1022.4 mb 0.00 in0.0 mm 0.00 in0.0 mm 0.00 in0.0 mm
04:51 AM 56.1°F13.4°C 53.5°F11.9°C 91% Calm Calm 2.0 mph3.2 kmh 30.19 in1022.4 mb 0.00 in0.0 mm 0.00 in0.0 mm 0.00 in0.0 mm
04:56 AM 56.2°F13.4°C 53.6°F12.0°C 91% Calm Calm 2.0 mph3.2 kmh 30.19 in1022.4 mb 0.00 in0.0 mm 0.00 in0.0 mm 0.00 in0.0 mm
05:01 AM 56.3°F13.5°C 53.7°F12.1°C 91% Calm Calm 1.0 mph1.6 kmh 30.19 in1022.4 mb 0.00 in0.0 mm 0.00 in0.0 mm 0.00 in0.0 mm
05:06 AM 56.4°F13.6°C 53.8°F12.1°C 91% 1.0 mph SE1.6 kmh SE 1.0 mph1.6 kmh 30.18 in1022.0 mb 0.00 in0.0 mm 0.00 in0.0 mm 0.00 in0.0 mm
05:11 AM 56.5°F13.6°C 53.6°F12.0°C 90% 1.0 mph SE1.6 kmh SE 1.0 mph1.6 kmh 30.19 in1022.4 mb 0.00 in0.0 mm 0.00 in0.0 mm 0.00 in0.0 mm
05:16 AM 56.6°F13.7°C 53.7°F12.1°C 90% Calm Calm 1.0 mph1.6 kmh 30.19 in1022.4 mb 0.00 in0.0 mm 0.00 in0.0 mm 0.00 in0.0 mm
05:21 AM 56.7°F13.7°C 53.8°F12.1°C 90% Calm Calm 1.0 mph1.6 kmh 30.19 in1022.4 mb 0.00 in0.0 mm 0.00 in0.0 mm 0.00 in0.0 mm
05:26 AM 56.8°F13.8°C 53.9°F12.2°C 90% Calm Calm 1.0 mph1.6 kmh 30.19 in1022.4 mb 0.00 in0.0 mm 0.00 in0.0 mm 0.00 in0.0 mm
05:32 AM 56.9°F13.8°C 54.0°F12.2°C 90% 1.2 mph SE1.9 kmh SE 2.0 mph3.2 kmh 30.19 in1022.4 mb 0.00 in0.0 mm 0.00 in0.0 mm 0.00 in0.0 mm
05:36 AM 57.0°F13.9°C 53.8°F12.1°C 89% Calm Calm 2.0 mph3.2 kmh 30.19 in1022.4 mb 0.00 in0.0 mm 0.00 in0.0 mm 0.00 in0.0 mm
05:42 AM 57.0°F13.9°C 53.8°F12.1°C 89% 1.3 mph SE2.1 kmh SE 2.0 mph3.2 kmh 30.19 in1022.4 mb 0.00 in0.0 mm 0.00 in0.0 mm 0.00 in0.0 mm
05:47 AM 57.0°F13.9°C 53.8°F12.1°C 89% 1.0 mph SE1.6 kmh SE 2.0 mph3.2 kmh 30.19 in1022.4 mb 0.00 in0.0 mm 0.00 in0.0 mm 0.00 in0.0 mm
05:52 AM 57.0°F13.9°C 53.8°F12.1°C 89% 1.5 mph SSE2.4 kmh SSE 2.0 mph3.2 kmh 30.19 in1022.4 mb 0.00 in0.0 mm 0.00 in0.0 mm 0.00 in0.0 mm
05:57 AM 57.0°F13.9°C 53.8°F12.1°C 89% 1.0 mph SSE1.6 kmh SSE 2.0 mph3.2 kmh 30.19 in1022.4 mb 0.00 in0.0 mm 0.00 in0.0 mm 0.00 in0.0 mm
06:02 AM 56.9°F13.8°C 53.7°F12.1°C 89% Calm Calm 2.0 mph3.2 kmh 30.19 in1022.4 mb 0.00 in0.0 mm 0.00 in0.0 mm 0.00 in0.0 mm
06:07 AM 56.9°F13.8°C 53.7°F12.1°C 89% Calm Calm 2.0 mph3.2 kmh 30.19 in1022.4 mb 0.00 in0.0 mm 0.00 in0.0 mm 0.00 in0.0 mm
06:12 AM 56.8°F13.8°C 53.6°F12.0°C 89% Calm Calm 2.0 mph3.2 kmh 30.20 in1022.7 mb 0.00 in0.0 mm 0.00 in0.0 mm 0.00 in0.0 mm
06:17 AM 56.8°F13.8°C 53.9°F12.2°C 90% Calm Calm 2.0 mph3.2 kmh 30.20 in1022.7 mb 0.00 in0.0 mm 0.00 in0.0 mm 0.00 in0.0 mm
06:22 AM 56.7°F13.7°C 53.8°F12.1°C 90% Calm Calm 2.0 mph3.2 kmh 30.20 in1022.7 mb 0.00 in0.0 mm 0.00 in0.0 mm 0.00 in0.0 mm
06:27 AM 56.7°F13.7°C 53.8°F12.1°C 90% Calm Calm 2.0 mph3.2 kmh 30.20 in1022.7 mb 0.00 in0.0 mm 0.00 in0.0 mm 0.00 in0.0 mm
06:32 AM 56.7°F13.7°C 53.8°F12.1°C 90% 1.0 mph SW1.6 kmh SW 2.0 mph3.2 kmh 30.20 in1022.7 mb 0.00 in0.0 mm 0.00 in0.0 mm 0.00 in0.0 mm
06:37 AM 56.6°F13.7°C 53.7°F12.1°C 90% Calm Calm 1.0 mph1.6 kmh 30.20 in1022.7 mb 0.00 in0.0 mm 0.00 in0.0 mm 0.00 in0.0 mm
06:42 AM 56.5°F13.6°C 53.6°F12.0°C 90% 1.0 mph SSW1.6 kmh SSW 1.0 mph1.6 kmh 30.20 in1022.7 mb 0.00 in0.0 mm 0.00 in0.0 mm 0.00 in0.0 mm
06:45 AM 56.5°F13.6°C 53.6°F12.0°C 90% Calm Calm 1.0 mph1.6 kmh 30.20 in1022.7 mb 0.00 in0.0 mm 0.00 in0.0 mm 0.00 in0.0 mm
06:51 AM 56.3°F13.5°C 53.4°F11.9°C 90% Calm Calm 1.0 mph1.6 kmh 30.20 in1022.7 mb 0.00 in0.0 mm 0.00 in0.0 mm 0.00 in0.0 mm
06:56 AM 56.3°F13.5°C 53.4°F11.9°C 90% Calm Calm 1.0 mph1.6 kmh 30.20 in1022.7 mb 0.00 in0.0 mm 0.00 in0.0 mm 0.00 in0.0 mm
07:01 AM 56.2°F13.4°C 53.6°F12.0°C 91% 1.0 mph SSW1.6 kmh SSW 1.0 mph1.6 kmh 30.20 in1022.7 mb 0.00 in0.0 mm 0.00 in0.0 mm 0.00 in0.0 mm
07:06 AM 56.2°F13.4°C 53.6°F12.0°C 91% 1.0 mph SSW1.6 kmh SSW 1.0 mph1.6 kmh 30.20 in1022.7 mb 0.00 in0.0 mm 0.00 in0.0 mm 0.00 in0.0 mm
07:10 AM 56.1°F13.4°C 53.5°F11.9°C 91% 1.1 mph SW1.8 kmh SW 2.0 mph3.2 kmh 30.19 in1022.4 mb 0.00 in0.0 mm 0.00 in0.0 mm 0.00 in0.0 mm
07:16 AM 55.9°F13.3°C 53.3°F11.8°C 91% 1.6 mph SW2.6 kmh SW 2.0 mph3.2 kmh 30.20 in1022.7 mb 0.00 in0.0 mm 0.00 in0.0 mm 0.00 in0.0 mm
07:21 AM 55.9°F13.3°C 53.3°F11.8°C 91% 1.0 mph SW1.6 kmh SW 2.0 mph3.2 kmh 30.20 in1022.7 mb 0.00 in0.0 mm 0.00 in0.0 mm 0.00 in0.0 mm
07:26 AM 55.8°F13.2°C 53.2°F11.8°C 91% 1.0 mph SW1.6 kmh SW 2.0 mph3.2 kmh 30.19 in1022.4 mb 0.00 in0.0 mm 0.00 in0.0 mm 0.00 in0.0 mm
07:31 AM 55.8°F13.2°C 53.2°F11.8°C 91% 1.0 mph SW1.6 kmh SW 2.0 mph3.2 kmh 30.20 in1022.7 mb 0.00 in0.0 mm 0.00 in0.0 mm 0.00 in0.0 mm
07:36 AM 55.8°F13.2°C 53.5°F11.9°C 92% 1.0 mph SW1.6 kmh SW 1.0 mph1.6 kmh 30.19 in1022.4 mb 0.00 in0.0 mm 0.00 in0.0 mm 0.00 in0.0 mm
07:41 AM 55.8°F13.2°C 53.5°F11.9°C 92% Calm Calm 1.0 mph1.6 kmh 30.19 in1022.4 mb 0.00 in0.0 mm 0.00 in0.0 mm 0.00 in0.0 mm
07:46 AM 55.9°F13.3°C 53.3°F11.8°C 91% Calm Calm 1.0 mph1.6 kmh 30.19 in1022.4 mb 0.00 in0.0 mm 0.00 in0.0 mm 0.00 in0.0 mm
07:51 AM 56.0°F13.3°C 53.4°F11.9°C 91% Calm Calm 1.0 mph1.6 kmh 30.20 in1022.7 mb 0.00 in0.0 mm 0.00 in0.0 mm 0.00 in0.0 mm
07:56 AM 56.1°F13.4°C 53.5°F11.9°C 91% Calm Calm 1.0 mph1.6 kmh 30.20 in1022.7 mb 0.00 in0.0 mm 0.00 in0.0 mm 0.00 in0.0 mm
08:01 AM 56.3°F13.5°C 53.7°F12.1°C 91% Calm Calm -- 30.20 in1022.7 mb 0.00 in0.0 mm 0.00 in0.0 mm 0.00 in0.0 mm
08:06 AM 56.5°F13.6°C 53.9°F12.2°C 91% Calm Calm -- 30.20 in1022.7 mb 0.00 in0.0 mm 0.00 in0.0 mm 0.00 in0.0 mm
08:11 AM 56.7°F13.7°C 53.8°F12.1°C 90% Calm Calm -- 30.20 in1022.7 mb 0.00 in0.0 mm 0.00 in0.0 mm 0.00 in0.0 mm
08:16 AM 56.8°F13.8°C 53.9°F12.2°C 90% 1.0 mph SW1.6 kmh SW 1.0 mph1.6 kmh 30.20 in1022.7 mb 0.00 in0.0 mm 0.00 in0.0 mm 0.00 in0.0 mm
08:21 AM 56.9°F13.8°C 54.0°F12.2°C 90% 1.0 mph SW1.6 kmh SW 1.0 mph1.6 kmh 30.20 in1022.7 mb 0.00 in0.0 mm 0.00 in0.0 mm 0.00 in0.0 mm
08:26 AM 57.1°F13.9°C 53.9°F12.2°C 89% 1.0 mph SW1.6 kmh SW 1.0 mph1.6 kmh 30.20 in1022.7 mb 0.00 in0.0 mm 0.00 in0.0 mm 0.00 in0.0 mm
08:31 AM 57.1°F13.9°C 53.9°F12.2°C 89% 1.1 mph SW1.8 kmh SW 2.0 mph3.2 kmh 30.20 in1022.7 mb 0.00 in0.0 mm 0.00 in0.0 mm 0.00 in0.0 mm
08:36 AM 57.2°F14.0°C 54.0°F12.2°C 89% 2.1 mph SW3.4 kmh SW 3.0 mph4.8 kmh 30.20 in1022.7 mb 0.00 in0.0 mm 0.00 in0.0 mm 0.00 in0.0 mm
08:41 AM 57.2°F14.0°C 54.0°F12.2°C 89% 1.6 mph SW2.6 kmh SW 3.0 mph4.8 kmh 30.21 in1023.0 mb 0.00 in0.0 mm 0.00 in0.0 mm 0.00 in0.0 mm
08:46 AM 57.3°F14.1°C 54.1°F12.3°C 89% 1.8 mph SW2.9 kmh SW 3.0 mph4.8 kmh 30.20 in1022.7 mb 0.00 in0.0 mm 0.00 in0.0 mm 0.00 in0.0 mm
08:51 AM 57.4°F14.1°C 54.2°F12.3°C 89% 1.6 mph SW2.6 kmh SW 3.0 mph4.8 kmh 30.21 in1023.0 mb 0.00 in0.0 mm 0.00 in0.0 mm 0.00 in0.0 mm
08:56 AM 57.6°F14.2°C 54.4°F12.4°C 89% 1.3 mph SW2.1 kmh SW 3.0 mph4.8 kmh 30.21 in1023.0 mb 0.00 in0.0 mm 0.00 in0.0 mm 0.00 in0.0 mm
09:01 AM 57.9°F14.4°C 54.7°F12.6°C 89% 1.3 mph SW2.1 kmh SW 4.0 mph6.4 kmh 30.21 in1023.0 mb 0.00 in0.0 mm 0.00 in0.0 mm 0.00 in0.0 mm
09:06 AM 58.3°F14.6°C 54.8°F12.7°C 88% 1.0 mph SW1.6 kmh SW 4.0 mph6.4 kmh 30.21 in1023.0 mb 0.00 in0.0 mm 0.00 in0.0 mm 0.00 in0.0 mm
09:11 AM 58.6°F14.8°C 55.1°F12.8°C 88% 1.3 mph SW2.1 kmh SW 4.0 mph6.4 kmh 30.20 in1022.7 mb 0.00 in0.0 mm 0.00 in0.0 mm 0.00 in0.0 mm
09:16 AM 58.9°F14.9°C 55.4°F13.0°C 88% Calm Calm 4.0 mph6.4 kmh 30.21 in1023.0 mb 0.00 in0.0 mm 0.00 in0.0 mm 0.00 in0.0 mm
09:21 AM 59.3°F15.2°C 55.4°F13.0°C 87% Calm Calm 2.0 mph3.2 kmh 30.21 in1023.0 mb 0.00 in0.0 mm 0.00 in0.0 mm 0.00 in0.0 mm
09:26 AM 59.5°F15.3°C 55.6°F13.1°C 87% 1.1 mph SW1.8 kmh SW 3.0 mph4.8 kmh 30.21 in1023.0 mb 0.00 in0.0 mm 0.00 in0.0 mm 0.00 in0.0 mm
09:31 AM 59.6°F15.3°C 55.7°F13.2°C 87% 1.3 mph SW2.1 kmh SW 4.0 mph6.4 kmh 30.21 in1023.0 mb 0.00 in0.0 mm 0.00 in0.0 mm 0.00 in0.0 mm
09:36 AM 59.8°F15.4°C 55.9°F13.3°C 87% 1.5 mph SSW2.4 kmh SSW 4.0 mph6.4 kmh 30.21 in1023.0 mb 0.00 in0.0 mm 0.00 in0.0 mm 0.00 in0.0 mm
09:41 AM 60.2°F15.7°C 56.0°F13.3°C 86% Calm Calm 4.0 mph6.4 kmh 30.20 in1022.7 mb 0.00 in0.0 mm 0.00 in0.0 mm 0.00 in0.0 mm
09:46 AM 60.9°F16.1°C 56.4°F13.6°C 85% Calm Calm 4.0 mph6.4 kmh 30.20 in1022.7 mb 0.00 in0.0 mm 0.00 in0.0 mm 0.00 in0.0 mm
09:51 AM 61.4°F16.3°C 56.8°F13.8°C 85% 1.2 mph SW1.9 kmh SW 3.0 mph4.8 kmh 30.20 in1022.7 mb 0.00 in0.0 mm 0.00 in0.0 mm 0.00 in0.0 mm
09:56 AM 61.9°F16.6°C 57.0°F13.9°C 84% 2.7 mph SW4.3 kmh SW 5.0 mph8.0 kmh 30.20 in1022.7 mb 0.00 in0.0 mm 0.00 in0.0 mm 0.00 in0.0 mm
10:01 AM 62.2°F16.8°C 57.0°F13.9°C 83% 2.3 mph SSW3.7 kmh SSW 5.0 mph8.0 kmh 30.20 in1022.7 mb 0.00 in0.0 mm 0.00 in0.0 mm 0.00 in0.0 mm
10:06 AM 62.3°F16.8°C 57.1°F13.9°C 83% 1.0 mph SW1.6 kmh SW 5.0 mph8.0 kmh 30.19 in1022.4 mb 0.00 in0.0 mm 0.00 in0.0 mm 0.00 in0.0 mm
10:11 AM 62.5°F16.9°C 57.0°F13.9°C 82% 2.2 mph SW3.5 kmh SW 5.0 mph8.0 kmh 30.19 in1022.4 mb 0.00 in0.0 mm 0.00 in0.0 mm 0.00 in0.0 mm
10:16 AM 62.6°F17.0°C 57.4°F14.1°C 83% 2.6 mph SW4.2 kmh SW 4.0 mph6.4 kmh 30.19 in1022.4 mb 0.00 in0.0 mm 0.00 in0.0 mm 0.00 in0.0 mm
10:21 AM 62.8°F17.1°C 57.3°F14.1°C 82% 2.1 mph SW3.4 kmh SW 4.0 mph6.4 kmh 30.19 in1022.4 mb 0.00 in0.0 mm 0.00 in0.0 mm 0.00 in0.0 mm
10:26 AM 63.0°F17.2°C 57.5°F14.2°C 82% 2.0 mph WSW3.2 kmh WSW 4.0 mph6.4 kmh 30.19 in1022.4 mb 0.00 in0.0 mm 0.00 in0.0 mm 0.00 in0.0 mm
10:31 AM 63.2°F17.3°C 58.0°F14.4°C 83% 1.5 mph SW2.4 kmh SW 4.0 mph6.4 kmh 30.19 in1022.4 mb 0.00 in0.0 mm 0.00 in0.0 mm 0.00 in0.0 mm
10:36 AM 63.5°F17.5°C 58.0°F14.4°C 82% 1.6 mph WNW2.6 kmh WNW 4.0 mph6.4 kmh 30.19 in1022.4 mb 0.00 in0.0 mm 0.00 in0.0 mm 0.00 in0.0 mm
10:41 AM 63.9°F17.7°C 58.3°F14.6°C 82% 1.1 mph WSW1.8 kmh WSW 4.0 mph6.4 kmh 30.20 in1022.7 mb 0.00 in0.0 mm 0.00 in0.0 mm 0.00 in0.0 mm
10:46 AM 64.1°F17.8°C 58.2°F14.6°C 81% 1.6 mph W2.6 kmh W 3.0 mph4.8 kmh 30.20 in1022.7 mb 0.00 in0.0 mm 0.00 in0.0 mm 0.00 in0.0 mm
10:51 AM 63.9°F17.7°C 58.0°F14.4°C 81% 2.8 mph W4.5 kmh W 5.0 mph8.0 kmh 30.20 in1022.7 mb 0.00 in0.0 mm 0.00 in0.0 mm 0.00 in0.0 mm
10:56 AM 63.9°F17.7°C 58.3°F14.6°C 82% 2.2 mph WNW3.5 kmh WNW 5.0 mph8.0 kmh 30.20 in1022.7 mb 0.00 in0.0 mm 0.00 in0.0 mm 0.00 in0.0 mm
11:01 AM 64.1°F17.8°C 58.5°F14.7°C 82% 1.9 mph W3.1 kmh W 5.0 mph8.0 kmh 30.20 in1022.7 mb 0.00 in0.0 mm 0.00 in0.0 mm 0.00 in0.0 mm
11:06 AM 64.4°F18.0°C 58.5°F14.7°C 81% 2.5 mph WSW4.0 kmh WSW 7.0 mph11.3 kmh 30.20 in1022.7 mb 0.00 in0.0 mm 0.00 in0.0 mm 0.00 in0.0 mm
11:11 AM 64.6°F18.1°C 58.7°F14.8°C 81% 2.8 mph WSW4.5 kmh WSW 7.0 mph11.3 kmh 30.20 in1022.7 mb 0.00 in0.0 mm 0.00 in0.0 mm 0.00 in0.0 mm
11:16 AM 64.5°F18.1°C 58.6°F14.8°C 81% 2.8 mph W4.5 kmh W 7.0 mph11.3 kmh 30.19 in1022.4 mb 0.00 in0.0 mm 0.00 in0.0 mm 0.00 in0.0 mm
11:21 AM 64.6°F18.1°C 58.7°F14.8°C 81% 3.1 mph WSW5.0 kmh WSW 7.0 mph11.3 kmh 30.20 in1022.7 mb 0.00 in0.0 mm 0.00 in0.0 mm 0.00 in0.0 mm
11:26 AM 64.9°F18.3°C 59.0°F15.0°C 81% 1.9 mph WNW3.1 kmh WNW 7.0 mph11.3 kmh 30.19 in1022.4 mb 0.00 in0.0 mm 0.00 in0.0 mm 0.00 in0.0 mm
11:31 AM 65.1°F18.4°C 59.2°F15.1°C 81% 2.0 mph W3.2 kmh W 7.0 mph11.3 kmh 30.19 in1022.4 mb 0.00 in0.0 mm 0.00 in0.0 mm 0.00 in0.0 mm
11:36 AM 65.4°F18.6°C 59.1°F15.1°C 80% 2.2 mph WSW3.5 kmh WSW 7.0 mph11.3 kmh 30.19 in1022.4 mb 0.00 in0.0 mm 0.00 in0.0 mm 0.00 in0.0 mm
11:40 AM 65.5°F18.6°C 58.8°F14.9°C 79% 1.5 mph WSW2.4 kmh WSW 6.0 mph9.7 kmh 30.18 in1022.0 mb 0.00 in0.0 mm 0.00 in0.0 mm 0.00 in0.0 mm
11:45 AM 65.9°F18.8°C 59.3°F15.2°C 79% 1.4 mph W2.3 kmh W 6.0 mph9.7 kmh 30.18 in1022.0 mb 0.00 in0.0 mm 0.00 in0.0 mm 0.00 in0.0 mm
11:50 AM 66.3°F19.1°C 59.3°F15.2°C 78% 2.4 mph WSW3.9 kmh WSW 6.0 mph9.7 kmh 30.18 in1022.0 mb 0.00 in0.0 mm 0.00 in0.0 mm 0.00 in0.0 mm
11:55 AM 66.3°F19.1°C 59.7°F15.4°C 79% 3.4 mph WSW5.5 kmh WSW 6.0 mph9.7 kmh 30.18 in1022.0 mb 0.00 in0.0 mm 0.00 in0.0 mm 0.00 in0.0 mm
12:00 PM 66.1°F18.9°C 59.1°F15.1°C 78% 1.9 mph W3.1 kmh W 6.0 mph9.7 kmh 30.18 in1022.0 mb 0.00 in0.0 mm 0.00 in0.0 mm 0.00 in0.0 mm
12:05 PM 66.0°F18.9°C 59.0°F15.0°C 78% 2.4 mph NW3.9 kmh NW 6.0 mph9.7 kmh 30.18 in1022.0 mb 0.00 in0.0 mm 0.00 in0.0 mm 0.00 in0.0 mm
12:10 PM 66.0°F18.9°C 59.0°F15.0°C 78% 3.2 mph SW5.1 kmh SW 7.0 mph11.3 kmh 30.18 in1022.0 mb 0.00 in0.0 mm 0.00 in0.0 mm 0.00 in0.0 mm
12:15 PM 66.2°F19.0°C 58.9°F14.9°C 77% 3.0 mph W4.8 kmh W 7.0 mph11.3 kmh 30.18 in1022.0 mb 0.00 in0.0 mm 0.00 in0.0 mm 0.00 in0.0 mm
12:20 PM 66.2°F19.0°C 58.9°F14.9°C 77% 3.0 mph W4.8 kmh W 7.0 mph11.3 kmh 30.17 in1021.7 mb 0.00 in0.0 mm 0.00 in0.0 mm 0.00 in0.0 mm
12:25 PM 66.2°F19.0°C 58.8°F14.9°C 77% 1.5 mph WSW2.4 kmh WSW 7.0 mph11.3 kmh 30.17 in1021.7 mb 0.00 in0.0 mm 0.00 in0.0 mm 0.00 in0.0 mm
12:30 PM 66.6°F19.2°C 59.2°F15.1°C 77% 2.0 mph WSW3.2 kmh WSW 7.0 mph11.3 kmh 30.17 in1021.7 mb 0.00 in0.0 mm 0.00 in0.0 mm 0.00 in0.0 mm
12:35 PM 66.4°F19.1°C 59.0°F15.0°C 77% 1.5 mph WSW2.4 kmh WSW 6.0 mph9.7 kmh 30.17 in1021.7 mb 0.00 in0.0 mm 0.00 in0.0 mm 0.00 in0.0 mm
12:40 PM 66.5°F19.2°C 59.1°F15.1°C 77% Calm Calm 6.0 mph9.7 kmh 30.16 in1021.3 mb 0.00 in0.0 mm 0.00 in0.0 mm 0.00 in0.0 mm
12:45 PM 66.8°F19.3°C 59.4°F15.2°C 77% 1.5 mph WSW2.4 kmh WSW 6.0 mph9.7 kmh 30.16 in1021.3 mb 0.00 in0.0 mm 0.00 in0.0 mm 0.00 in0.0 mm
12:50 PM 67.1°F19.5°C 59.3°F15.2°C 76% Calm Calm 6.0 mph9.7 kmh 30.16 in1021.3 mb 0.00 in0.0 mm 0.00 in0.0 mm 0.00 in0.0 mm
12:55 PM 67.3°F19.6°C 59.1°F15.1°C 75% 1.3 mph SSW2.1 kmh SSW 4.0 mph6.4 kmh 30.15 in1021.0 mb 0.00 in0.0 mm 0.00 in0.0 mm 0.00 in0.0 mm
01:00 PM 67.2°F19.6°C 58.8°F14.9°C 74% 1.8 mph WSW2.9 kmh WSW 3.0 mph4.8 kmh 30.15 in1021.0 mb 0.00 in0.0 mm 0.00 in0.0 mm 0.00 in0.0 mm
01:05 PM 67.0°F19.4°C 58.8°F14.9°C 75% 2.0 mph SW3.2 kmh SW 4.0 mph6.4 kmh 30.15 in1021.0 mb 0.00 in0.0 mm 0.00 in0.0 mm 0.00 in0.0 mm
01:10 PM 66.9°F19.4°C 58.3°F14.6°C 74% 2.0 mph SW3.2 kmh SW 4.0 mph6.4 kmh 30.14 in1020.7 mb 0.00 in0.0 mm 0.00 in0.0 mm 0.00 in0.0 mm
01:15 PM 66.8°F19.3°C 58.7°F14.8°C 75% 1.5 mph SW2.4 kmh SW 4.0 mph6.4 kmh 30.14 in1020.7 mb 0.00 in0.0 mm 0.00 in0.0 mm 0.00 in0.0 mm
01:20 PM 66.9°F19.4°C 59.2°F15.1°C 76% 1.1 mph SW1.8 kmh SW 4.0 mph6.4 kmh 30.14 in1020.7 mb 0.00 in0.0 mm 0.00 in0.0 mm 0.00 in0.0 mm
01:25 PM 67.0°F19.4°C 58.9°F14.9°C 75% 1.3 mph W2.1 kmh W 4.0 mph6.4 kmh 30.13 in1020.3 mb 0.00 in0.0 mm 0.00 in0.0 mm 0.00 in0.0 mm
01:30 PM 67.1°F19.5°C 59.4°F15.2°C 76% 1.0 mph WSW1.6 kmh WSW 3.0 mph4.8 kmh 30.13 in1020.3 mb 0.00 in0.0 mm 0.00 in0.0 mm 0.00 in0.0 mm
01:35 PM 67.3°F19.6°C 59.2°F15.1°C 75% 1.0 mph SW1.6 kmh SW 2.0 mph3.2 kmh 30.12 in1020.0 mb 0.00 in0.0 mm 0.00 in0.0 mm 0.00 in0.0 mm
01:40 PM 67.1°F19.5°C 58.5°F14.7°C 74% 1.2 mph SW1.9 kmh SW 2.0 mph3.2 kmh 30.12 in1020.0 mb 0.00 in0.0 mm 0.00 in0.0 mm 0.00 in0.0 mm
01:45 PM 66.8°F19.3°C 58.6°F14.8°C 75% 1.0 mph WSW1.6 kmh WSW 3.0 mph4.8 kmh 30.12 in1020.0 mb 0.00 in0.0 mm 0.00 in0.0 mm 0.00 in0.0 mm
01:50 PM 66.6°F19.2°C 58.9°F14.9°C 76% 1.0 mph W1.6 kmh W 3.0 mph4.8 kmh 30.12 in1020.0 mb 0.00 in0.0 mm 0.00 in0.0 mm 0.00 in0.0 mm
01:55 PM 66.7°F19.3°C 59.0°F15.0°C 76% 1.0 mph WSW1.6 kmh WSW 3.0 mph4.8 kmh 30.11 in1019.6 mb 0.00 in0.0 mm 0.00 in0.0 mm 0.00 in0.0 mm
02:00 PM 66.6°F19.2°C 58.9°F14.9°C 76% 1.6 mph W2.6 kmh W 4.0 mph6.4 kmh 30.11 in1019.6 mb 0.00 in0.0 mm 0.00 in0.0 mm 0.00 in0.0 mm
02:05 PM 66.8°F19.3°C 59.1°F15.1°C 76% 1.0 mph SW1.6 kmh SW 4.0 mph6.4 kmh 30.11 in1019.6 mb 0.00 in0.0 mm 0.00 in0.0 mm 0.00 in0.0 mm
02:10 PM 67.0°F19.4°C 58.9°F14.9°C 75% 1.0 mph WSW1.6 kmh WSW 4.0 mph6.4 kmh 30.11 in1019.6 mb 0.00 in0.0 mm 0.00 in0.0 mm 0.00 in0.0 mm
02:15 PM 66.9°F19.4°C 58.8°F14.9°C 75% 2.1 mph WNW3.4 kmh WNW 4.0 mph6.4 kmh 30.11 in1019.6 mb 0.00 in0.0 mm 0.00 in0.0 mm 0.00 in0.0 mm
02:20 PM 66.7°F19.3°C 59.0°F15.0°C 76% 2.5 mph W4.0 kmh W 4.0 mph6.4 kmh 30.11 in1019.6 mb 0.00 in0.0 mm 0.00 in0.0 mm 0.00 in0.0 mm
02:25 PM 66.7°F19.3°C 58.6°F14.8°C 75% 1.3 mph W2.1 kmh W 6.0 mph9.7 kmh 30.11 in1019.6 mb 0.00 in0.0 mm 0.00 in0.0 mm 0.00 in0.0 mm
02:30 PM 66.7°F19.3°C 58.6°F14.8°C 75% 1.0 mph WSW1.6 kmh WSW 6.0 mph9.7 kmh 30.11 in1019.6 mb 0.00 in0.0 mm 0.00 in0.0 mm 0.00 in0.0 mm
02:35 PM 66.9°F19.4°C 59.2°F15.1°C 76% 1.5 mph WNW2.4 kmh WNW 6.0 mph9.7 kmh 30.10 in1019.3 mb 0.00 in0.0 mm 0.00 in0.0 mm 0.00 in0.0 mm
02:40 PM 66.9°F19.4°C 58.8°F14.9°C 75% 3.0 mph WNW4.8 kmh WNW 5.0 mph8.0 kmh 30.10 in1019.3 mb 0.00 in0.0 mm 0.00 in0.0 mm 0.00 in0.0 mm
02:45 PM 67.0°F19.4°C 58.9°F14.9°C 75% 2.1 mph W3.4 kmh W 5.0 mph8.0 kmh 30.10 in1019.3 mb 0.00 in0.0 mm 0.00 in0.0 mm 0.00 in0.0 mm
02:50 PM 67.3°F19.6°C 58.9°F14.9°C 74% 2.3 mph NW3.7 kmh NW 5.0 mph8.0 kmh 30.10 in1019.3 mb 0.00 in0.0 mm 0.00 in0.0 mm 0.00 in0.0 mm
02:55 PM 67.3°F19.6°C 59.2°F15.1°C 75% 2.0 mph WNW3.2 kmh WNW 5.0 mph8.0 kmh 30.09 in1019.0 mb 0.00 in0.0 mm 0.00 in0.0 mm 0.00 in0.0 mm
03:00 PM 67.5°F19.7°C 59.4°F15.2°C 75% 1.0 mph N1.6 kmh N 5.0 mph8.0 kmh 30.09 in1019.0 mb 0.00 in0.0 mm 0.00 in0.0 mm 0.00 in0.0 mm
03:05 PM 67.7°F19.8°C 59.3°F15.2°C 74% 1.1 mph NW1.8 kmh NW 5.0 mph8.0 kmh 30.09 in1019.0 mb 0.00 in0.0 mm 0.00 in0.0 mm 0.00 in0.0 mm
03:10 PM 67.7°F19.8°C 58.9°F14.9°C 73% 1.1 mph NW1.8 kmh NW 5.0 mph8.0 kmh 30.09 in1019.0 mb 0.00 in0.0 mm 0.00 in0.0 mm 0.00 in0.0 mm
03:15 PM 67.8°F19.9°C 58.6°F14.8°C 72% 2.9 mph WNW4.7 kmh WNW 6.0 mph9.7 kmh 30.09 in1019.0 mb 0.00 in0.0 mm 0.00 in0.0 mm 0.00 in0.0 mm
03:20 PM 67.4°F19.7°C 58.6°F14.8°C 73% 1.2 mph W1.9 kmh W 6.0 mph9.7 kmh 30.09 in1019.0 mb 0.00 in0.0 mm 0.00 in0.0 mm 0.00 in0.0 mm
03:25 PM 67.6°F19.8°C 58.4°F14.7°C 72% 2.4 mph NW3.9 kmh NW 6.0 mph9.7 kmh 30.09 in1019.0 mb 0.00 in0.0 mm 0.00 in0.0 mm 0.00 in0.0 mm
03:30 PM 67.7°F19.8°C 58.5°F14.7°C 72% 1.0 mph NW1.6 kmh NW 6.0 mph9.7 kmh 30.09 in1019.0 mb 0.00 in0.0 mm 0.00 in0.0 mm 0.00 in0.0 mm
03:35 PM 68.0°F20.0°C 58.8°F14.9°C 72% 2.6 mph NW4.2 kmh NW 5.0 mph8.0 kmh 30.09 in1019.0 mb 0.00 in0.0 mm 0.00 in0.0 mm 0.00 in0.0 mm
03:40 PM 67.8°F19.9°C 58.6°F14.8°C 72% 3.1 mph W5.0 kmh W 5.0 mph8.0 kmh 30.09 in1019.0 mb 0.00 in0.0 mm 0.00 in0.0 mm 0.00 in0.0 mm
03:45 PM 67.7°F19.8°C 58.5°F14.7°C 72% 1.5 mph WSW2.4 kmh WSW 5.0 mph8.0 kmh 30.08 in1018.6 mb 0.00 in0.0 mm 0.00 in0.0 mm 0.00 in0.0 mm
03:50 PM 68.0°F20.0°C 58.8°F14.9°C 72% Calm Calm 5.0 mph8.0 kmh 30.08 in1018.6 mb 0.00 in0.0 mm 0.00 in0.0 mm 0.00 in0.0 mm
03:55 PM 67.9°F19.9°C 58.3°F14.6°C 71% 3.1 mph WNW5.0 kmh WNW 5.0 mph8.0 kmh 30.08 in1018.6 mb 0.00 in0.0 mm 0.00 in0.0 mm 0.00 in0.0 mm
04:00 PM 68.1°F20.1°C 58.9°F14.9°C 72% 1.3 mph WNW2.1 kmh WNW 5.0 mph8.0 kmh 30.08 in1018.6 mb 0.00 in0.0 mm 0.00 in0.0 mm 0.00 in0.0 mm
04:05 PM 68.6°F20.3°C 59.0°F15.0°C 71% 1.4 mph SW2.3 kmh SW 5.0 mph8.0 kmh 30.08 in1018.6 mb 0.00 in0.0 mm 0.00 in0.0 mm 0.00 in0.0 mm
04:10 PM 68.4°F20.2°C 58.8°F14.9°C 71% Calm Calm 5.0 mph8.0 kmh 30.08 in1018.6 mb 0.00 in0.0 mm 0.00 in0.0 mm 0.00 in0.0 mm
04:15 PM 68.6°F20.3°C 59.0°F15.0°C 71% 1.3 mph WSW2.1 kmh WSW 3.0 mph4.8 kmh 30.08 in1018.6 mb 0.00 in0.0 mm 0.00 in0.0 mm 0.00 in0.0 mm
04:20 PM 68.5°F20.3°C 58.5°F14.7°C 70% 1.0 mph SW1.6 kmh SW 3.0 mph4.8 kmh 30.08 in1018.6 mb 0.00 in0.0 mm 0.00 in0.0 mm 0.00 in0.0 mm
04:25 PM 68.6°F20.3°C 58.6°F14.8°C 70% Calm Calm 2.0 mph3.2 kmh 30.08 in1018.6 mb 0.00 in0.0 mm 0.00 in0.0 mm 0.00 in0.0 mm
04:30 PM 68.5°F20.3°C 58.5°F14.7°C 70% 1.0 mph WSW1.6 kmh WSW 2.0 mph3.2 kmh 30.08 in1018.6 mb 0.00 in0.0 mm 0.00 in0.0 mm 0.00 in0.0 mm
04:35 PM 68.4°F20.2°C 58.8°F14.9°C 71% Calm Calm 1.0 mph1.6 kmh 30.08 in1018.6 mb 0.00 in0.0 mm 0.00 in0.0 mm 0.00 in0.0 mm
04:40 PM 68.5°F20.3°C 58.9°F14.9°C 71% 1.0 mph WSW1.6 kmh WSW 1.0 mph1.6 kmh 30.07 in1018.3 mb 0.00 in0.0 mm 0.00 in0.0 mm 0.00 in0.0 mm
04:45 PM 68.3°F20.2°C 58.7°F14.8°C 71% Calm Calm 1.0 mph1.6 kmh 30.07 in1018.3 mb 0.00 in0.0 mm 0.00 in0.0 mm 0.00 in0.0 mm
04:50 PM 68.2°F20.1°C 58.6°F14.8°C 71% 1.3 mph SSW2.1 kmh SSW 2.0 mph3.2 kmh 30.07 in1018.3 mb 0.00 in0.0 mm 0.00 in0.0 mm 0.00 in0.0 mm
04:55 PM 68.3°F20.2°C 58.7°F14.8°C 71% 1.0 mph SW1.6 kmh SW 2.0 mph3.2 kmh 30.07 in1018.3 mb 0.00 in0.0 mm 0.00 in0.0 mm 0.00 in0.0 mm
05:00 PM 68.2°F20.1°C 58.6°F14.8°C 71% 1.7 mph SW2.7 kmh SW 4.0 mph6.4 kmh 30.06 in1017.9 mb 0.00 in0.0 mm 0.00 in0.0 mm 0.00 in0.0 mm
05:05 PM 68.4°F20.2°C 58.8°F14.9°C 71% 1.0 mph SSW1.6 kmh SSW 4.0 mph6.4 kmh 30.06 in1017.9 mb 0.00 in0.0 mm 0.00 in0.0 mm 0.00 in0.0 mm
05:10 PM 69.2°F20.7°C 58.8°F14.9°C 69% 1.3 mph S2.1 kmh S 4.0 mph6.4 kmh 30.06 in1017.9 mb 0.00 in0.0 mm 0.00 in0.0 mm 0.00 in0.0 mm
05:15 PM 69.7°F20.9°C 58.9°F14.9°C 68% 1.5 mph S2.4 kmh S 4.0 mph6.4 kmh 30.05 in1017.6 mb 0.00 in0.0 mm 0.00 in0.0 mm 0.00 in0.0 mm
05:20 PM 69.8°F21.0°C 58.5°F14.7°C 67% 1.0 mph SE1.6 kmh SE 3.0 mph4.8 kmh 30.05 in1017.6 mb 0.00 in0.0 mm 0.00 in0.0 mm 0.00 in0.0 mm
05:25 PM 69.6°F20.9°C 58.6°F14.8°C 68% Calm Calm 3.0 mph4.8 kmh 30.05 in1017.6 mb 0.00 in0.0 mm 0.00 in0.0 mm 0.00 in0.0 mm
05:30 PM 70.0°F21.1°C 58.7°F14.8°C 67% Calm Calm 3.0 mph4.8 kmh 30.05 in1017.6 mb 0.00 in0.0 mm 0.00 in0.0 mm 0.00 in0.0 mm
05:35 PM 69.4°F20.8°C 58.6°F14.8°C 68% 1.0 mph SE1.6 kmh SE 3.0 mph4.8 kmh 30.05 in1017.6 mb 0.00 in0.0 mm 0.00 in0.0 mm 0.00 in0.0 mm
05:40 PM 69.3°F20.7°C 58.7°F14.8°C 69% 1.0 mph E1.6 kmh E 1.0 mph1.6 kmh 30.05 in1017.6 mb 0.00 in0.0 mm 0.00 in0.0 mm 0.00 in0.0 mm
05:45 PM 69.3°F20.7°C 58.9°F14.9°C 69% 1.0 mph SE1.6 kmh SE 1.0 mph1.6 kmh 30.05 in1017.6 mb 0.00 in0.0 mm 0.00 in0.0 mm 0.00 in0.0 mm
05:50 PM 69.4°F20.8°C 59.0°F15.0°C 69% Calm Calm 1.0 mph1.6 kmh 30.05 in1017.6 mb 0.00 in0.0 mm 0.00 in0.0 mm 0.00 in0.0 mm
05:55 PM 69.0°F20.6°C 58.6°F14.8°C 69% Calm Calm 1.0 mph1.6 kmh 30.05 in1017.6 mb 0.00 in0.0 mm 0.00 in0.0 mm 0.00 in0.0 mm
06:00 PM 68.6°F20.3°C 58.6°F14.8°C 70% Calm Calm 1.0 mph1.6 kmh 30.05 in1017.6 mb 0.00 in0.0 mm 0.00 in0.0 mm 0.00 in0.0 mm
06:05 PM 68.8°F20.4°C 58.8°F14.9°C 70% Calm Calm -- 30.05 in1017.6 mb 0.00 in0.0 mm 0.00 in0.0 mm 0.00 in0.0 mm
06:10 PM 68.5°F20.3°C 58.5°F14.7°C 70% Calm Calm -- 30.05 in1017.6 mb 0.00 in0.0 mm 0.00 in0.0 mm 0.00 in0.0 mm
06:15 PM 68.0°F20.0°C 58.4°F14.7°C 71% Calm Calm -- 30.05 in1017.6 mb 0.00 in0.0 mm 0.00 in0.0 mm 0.00 in0.0 mm
06:20 PM 67.5°F19.7°C 58.3°F14.6°C 72% 1.0 mph SW1.6 kmh SW 1.0 mph1.6 kmh 30.05 in1017.6 mb 0.00 in0.0 mm 0.00 in0.0 mm 0.00 in0.0 mm
06:25 PM 67.1°F19.5°C 58.3°F14.6°C 73% Calm Calm 1.0 mph1.6 kmh 30.05 in1017.6 mb 0.00 in0.0 mm 0.00 in0.0 mm 0.00 in0.0 mm
06:30 PM 66.9°F19.4°C 58.1°F14.5°C 73% 1.0 mph SW1.6 kmh SW 1.0 mph1.6 kmh 30.06 in1017.9 mb 0.00 in0.0 mm 0.00 in0.0 mm 0.00 in0.0 mm
06:35 PM 66.8°F19.3°C 58.4°F14.7°C 74% Calm Calm 1.0 mph1.6 kmh 30.05 in1017.6 mb 0.00 in0.0 mm 0.00 in0.0 mm 0.00 in0.0 mm
06:40 PM 66.6°F19.2°C 58.2°F14.6°C 74% Calm Calm 1.0 mph1.6 kmh 30.05 in1017.6 mb 0.00 in0.0 mm 0.00 in0.0 mm 0.00 in0.0 mm
06:45 PM 66.6°F19.2°C 58.2°F14.6°C 74% 1.0 mph WSW1.6 kmh WSW 1.0 mph1.6 kmh 30.05 in1017.6 mb 0.00 in0.0 mm 0.00 in0.0 mm 0.00 in0.0 mm
06:50 PM 66.6°F19.2°C 58.2°F14.6°C 74% Calm Calm 1.0 mph1.6 kmh 30.05 in1017.6 mb 0.00 in0.0 mm 0.00 in0.0 mm 0.00 in0.0 mm
06:55 PM 66.6°F19.2°C 58.2°F14.6°C 74% Calm Calm 1.0 mph1.6 kmh 30.06 in1017.9 mb 0.00 in0.0 mm 0.00 in0.0 mm 0.00 in0.0 mm
07:00 PM 66.5°F19.2°C 58.1°F14.5°C 74% Calm Calm 1.0 mph1.6 kmh 30.06 in1017.9 mb 0.00 in0.0 mm 0.00 in0.0 mm 0.00 in0.0 mm
07:05 PM 66.5°F19.2°C 58.5°F14.7°C 75% Calm Calm -- 30.06 in1017.9 mb 0.00 in0.0 mm 0.00 in0.0 mm 0.00 in0.0 mm
07:10 PM 66.4°F19.1°C 58.4°F14.7°C 75% Calm Calm -- 30.06 in1017.9 mb 0.00 in0.0 mm 0.00 in0.0 mm 0.00 in0.0 mm
07:15 PM 66.4°F19.1°C 58.4°F14.7°C 75% Calm Calm -- 30.06 in1017.9 mb 0.00 in0.0 mm 0.00 in0.0 mm 0.00 in0.0 mm
07:20 PM 66.3°F19.1°C 58.3°F14.6°C 75% Calm Calm -- 30.06 in1017.9 mb 0.00 in0.0 mm 0.00 in0.0 mm 0.00 in0.0 mm
07:25 PM 66.1°F18.9°C 58.4°F14.7°C 76% Calm Calm -- 30.06 in1017.9 mb 0.00 in0.0 mm 0.00 in0.0 mm 0.00 in0.0 mm
07:30 PM 65.6°F18.7°C 58.3°F14.6°C 77% Calm Calm -- 30.06 in1017.9 mb 0.00 in0.0 mm 0.00 in0.0 mm 0.00 in0.0 mm
07:35 PM 65.4°F18.6°C 58.5°F14.7°C 78% Calm Calm -- 30.06 in1017.9 mb 0.00 in0.0 mm 0.00 in0.0 mm 0.00 in0.0 mm
07:40 PM 65.3°F18.5°C 58.4°F14.7°C 78% Calm Calm -- 30.06 in1017.9 mb 0.00 in0.0 mm 0.00 in0.0 mm 0.00 in0.0 mm
07:45 PM 65.2°F18.4°C 58.3°F14.6°C 78% Calm Calm -- 30.06 in1017.9 mb 0.00 in0.0 mm 0.00 in0.0 mm 0.00 in0.0 mm
07:50 PM 65.3°F18.5°C 58.4°F14.7°C 78% 1.0 mph SE1.6 kmh SE 1.0 mph1.6 kmh 30.06 in1017.9 mb 0.00 in0.0 mm 0.00 in0.0 mm 0.00 in0.0 mm
07:55 PM 65.3°F18.5°C 58.7°F14.8°C 79% Calm Calm 1.0 mph1.6 kmh 30.07 in1018.3 mb 0.00 in0.0 mm 0.00 in0.0 mm 0.00 in0.0 mm
08:00 PM 65.1°F18.4°C 58.4°F14.7°C 79% Calm Calm 1.0 mph1.6 kmh 30.07 in1018.3 mb 0.00 in0.0 mm 0.00 in0.0 mm 0.00 in0.0 mm
08:05 PM 65.1°F18.4°C 58.4°F14.7°C 79% Calm Calm 1.0 mph1.6 kmh 30.07 in1018.3 mb 0.00 in0.0 mm 0.00 in0.0 mm 0.00 in0.0 mm
08:10 PM 65.0°F18.3°C 58.3°F14.6°C 79% Calm Calm -- 30.07 in1018.3 mb 0.00 in0.0 mm 0.00 in0.0 mm 0.00 in0.0 mm
08:15 PM 65.1°F18.4°C 58.4°F14.7°C 79% Calm Calm -- 30.07 in1018.3 mb 0.00 in0.0 mm 0.00 in0.0 mm 0.00 in0.0 mm
08:20 PM 65.1°F18.4°C 58.1°F14.5°C 78% Calm Calm -- 30.07 in1018.3 mb 0.00 in0.0 mm 0.00 in0.0 mm 0.00 in0.0 mm
08:25 PM 65.0°F18.3°C 58.1°F14.5°C 78% Calm Calm -- 30.07 in1018.3 mb 0.00 in0.0 mm 0.00 in0.0 mm 0.00 in0.0 mm
08:30 PM 64.8°F18.2°C 57.9°F14.4°C 78% Calm Calm -- 30.07 in1018.3 mb 0.00 in0.0 mm 0.00 in0.0 mm 0.00 in0.0 mm
08:35 PM 64.7°F18.2°C 58.1°F14.5°C 79% Calm Calm 1.0 mph1.6 kmh 30.07 in1018.3 mb 0.00 in0.0 mm 0.00 in0.0 mm 0.00 in0.0 mm
08:40 PM 64.4°F18.0°C 57.8°F14.3°C 79% Calm Calm 1.0 mph1.6 kmh 30.06 in1017.9 mb 0.00 in0.0 mm 0.00 in0.0 mm 0.00 in0.0 mm
08:45 PM 64.0°F17.8°C 57.7°F14.3°C 80% 1.0 mph SW1.6 kmh SW 1.0 mph1.6 kmh 30.06 in1017.9 mb 0.00 in0.0 mm 0.00 in0.0 mm 0.00 in0.0 mm
08:50 PM 63.7°F17.6°C 57.8°F14.3°C 81% Calm Calm 1.0 mph1.6 kmh 30.06 in1017.9 mb 0.00 in0.0 mm 0.00 in0.0 mm 0.00 in0.0 mm
08:55 PM 63.5°F17.5°C 57.9°F14.4°C 82% 1.0 mph SW1.6 kmh SW 1.0 mph1.6 kmh 30.07 in1018.3 mb 0.00 in0.0 mm 0.00 in0.0 mm 0.00 in0.0 mm
09:00 PM 63.4°F17.4°C 57.8°F14.3°C 82% 1.4 mph SW2.3 kmh SW 3.0 mph4.8 kmh 30.07 in1018.3 mb 0.00 in0.0 mm 0.00 in0.0 mm 0.00 in0.0 mm
09:05 PM 63.2°F17.3°C 57.9°F14.4°C 83% 1.0 mph SW1.6 kmh SW 3.0 mph4.8 kmh 30.07 in1018.3 mb 0.00 in0.0 mm 0.00 in0.0 mm 0.00 in0.0 mm
09:10 PM 62.8°F17.1°C 57.9°F14.4°C 84% 1.0 mph SW1.6 kmh SW 3.0 mph4.8 kmh 30.07 in1018.3 mb 0.00 in0.0 mm 0.00 in0.0 mm 0.00 in0.0 mm
09:15 PM 62.4°F16.9°C 58.2°F14.6°C 86% 1.3 mph SW2.1 kmh SW 3.0 mph4.8 kmh 30.07 in1018.3 mb 0.00 in0.0 mm 0.00 in0.0 mm 0.00 in0.0 mm
09:20 PM 62.2°F16.8°C 58.0°F14.4°C 86% 1.0 mph SW1.6 kmh SW 2.0 mph3.2 kmh 30.07 in1018.3 mb 0.00 in0.0 mm 0.00 in0.0 mm 0.00 in0.0 mm
09:25 PM 62.3°F16.8°C 58.1°F14.5°C 86% 1.0 mph SW1.6 kmh SW 2.0 mph3.2 kmh 30.07 in1018.3 mb 0.00 in0.0 mm 0.00 in0.0 mm 0.00 in0.0 mm
09:30 PM 62.3°F16.8°C 58.1°F14.5°C 86% 1.5 mph WSW2.4 kmh WSW 3.0 mph4.8 kmh 30.07 in1018.3 mb 0.00 in0.0 mm 0.00 in0.0 mm 0.00 in0.0 mm
09:35 PM 62.3°F16.8°C 58.1°F14.5°C 86% 1.0 mph SW1.6 kmh SW 3.0 mph4.8 kmh 30.07 in1018.3 mb 0.00 in0.0 mm 0.00 in0.0 mm 0.00 in0.0 mm
09:39 PM 62.3°F16.8°C 58.1°F14.5°C 86% 1.1 mph WSW1.8 kmh WSW 3.0 mph4.8 kmh 30.07 in1018.3 mb 0.00 in0.0 mm 0.00 in0.0 mm 0.00 in0.0 mm
09:44 PM 62.3°F16.8°C 58.1°F14.5°C 86% 1.7 mph SW2.7 kmh SW 3.0 mph4.8 kmh 30.08 in1018.6 mb 0.00 in0.0 mm 0.00 in0.0 mm 0.00 in0.0 mm
09:49 PM 62.3°F16.8°C 58.1°F14.5°C 86% 1.3 mph WSW2.1 kmh WSW 3.0 mph4.8 kmh 30.08 in1018.6 mb 0.00 in0.0 mm 0.00 in0.0 mm 0.00 in0.0 mm
09:54 PM 62.2°F16.8°C 58.0°F14.4°C 86% 1.3 mph WSW2.1 kmh WSW 5.0 mph8.0 kmh 30.08 in1018.6 mb 0.00 in0.0 mm 0.00 in0.0 mm 0.00 in0.0 mm
09:59 PM 62.1°F16.7°C 57.9°F14.4°C 86% 1.0 mph WSW1.6 kmh WSW 5.0 mph8.0 kmh 30.08 in1018.6 mb 0.00 in0.0 mm 0.00 in0.0 mm 0.00 in0.0 mm
10:04 PM 61.9°F16.6°C 58.0°F14.4°C 87% 1.4 mph W2.3 kmh W 5.0 mph8.0 kmh 30.09 in1019.0 mb 0.00 in0.0 mm 0.00 in0.0 mm 0.00 in0.0 mm
10:09 PM 61.8°F16.6°C 57.9°F14.4°C 87% 1.7 mph WSW2.7 kmh WSW 4.0 mph6.4 kmh 30.09 in1019.0 mb 0.00 in0.0 mm 0.00 in0.0 mm 0.00 in0.0 mm
10:14 PM 61.7°F16.5°C 58.1°F14.5°C 88% 2.0 mph WSW3.2 kmh WSW 4.0 mph6.4 kmh 30.09 in1019.0 mb 0.00 in0.0 mm 0.00 in0.0 mm 0.00 in0.0 mm
10:19 PM 61.6°F16.4°C 58.0°F14.4°C 88% 1.3 mph WSW2.1 kmh WSW 4.0 mph6.4 kmh 30.08 in1018.6 mb 0.00 in0.0 mm 0.00 in0.0 mm 0.00 in0.0 mm
10:24 PM 61.6°F16.4°C 58.0°F14.4°C 88% 1.8 mph WSW2.9 kmh WSW 4.0 mph6.4 kmh 30.08 in1018.6 mb 0.00 in0.0 mm 0.00 in0.0 mm 0.00 in0.0 mm
10:29 PM 61.4°F16.3°C 57.8°F14.3°C 88% 1.8 mph WSW2.9 kmh WSW 4.0 mph6.4 kmh 30.08 in1018.6 mb 0.00 in0.0 mm 0.00 in0.0 mm 0.00 in0.0 mm
10:34 PM 61.3°F16.3°C 57.7°F14.3°C 88% 1.6 mph WSW2.6 kmh WSW 3.0 mph4.8 kmh 30.08 in1018.6 mb 0.00 in0.0 mm 0.00 in0.0 mm 0.00 in0.0 mm
10:39 PM 61.2°F16.2°C 57.9°F14.4°C 89% 1.6 mph WSW2.6 kmh WSW 4.0 mph6.4 kmh 30.08 in1018.6 mb 0.00 in0.0 mm 0.00 in0.0 mm 0.00 in0.0 mm
10:44 PM 61.1°F16.2°C 57.8°F14.3°C 89% 1.0 mph SW1.6 kmh SW 4.0 mph6.4 kmh 30.08 in1018.6 mb 0.00 in0.0 mm 0.00 in0.0 mm 0.00 in0.0 mm
10:49 PM 61.1°F16.2°C 57.8°F14.3°C 89% 1.3 mph WSW2.1 kmh WSW 4.0 mph6.4 kmh 30.08 in1018.6 mb 0.00 in0.0 mm 0.00 in0.0 mm 0.00 in0.0 mm
10:54 PM 61.0°F16.1°C 57.7°F14.3°C 89% 1.0 mph WSW1.6 kmh WSW 4.0 mph6.4 kmh 30.07 in1018.3 mb 0.00 in0.0 mm 0.00 in0.0 mm 0.00 in0.0 mm
10:59 PM 60.9°F16.1°C 57.6°F14.2°C 89% 1.3 mph WSW2.1 kmh WSW 2.0 mph3.2 kmh 30.08 in1018.6 mb 0.00 in0.0 mm 0.00 in0.0 mm 0.00 in0.0 mm
11:04 PM 60.9°F16.1°C 57.9°F14.4°C 90% 1.5 mph WSW2.4 kmh WSW 3.0 mph4.8 kmh 30.08 in1018.6 mb 0.00 in0.0 mm 0.00 in0.0 mm 0.00 in0.0 mm
11:09 PM 60.8°F16.0°C 57.8°F14.3°C 90% 1.6 mph WSW2.6 kmh WSW 3.0 mph4.8 kmh 30.08 in1018.6 mb 0.00 in0.0 mm 0.00 in0.0 mm 0.00 in0.0 mm
11:14 PM 60.7°F15.9°C 57.7°F14.3°C 90% 1.3 mph WSW2.1 kmh WSW 3.0 mph4.8 kmh 30.07 in1018.3 mb 0.00 in0.0 mm 0.00 in0.0 mm 0.00 in0.0 mm
11:19 PM 60.5°F15.8°C 57.5°F14.2°C 90% 1.2 mph SW1.9 kmh SW 3.0 mph4.8 kmh 30.07 in1018.3 mb 0.00 in0.0 mm 0.00 in0.0 mm 0.00 in0.0 mm
11:24 PM 60.3°F15.7°C 57.6°F14.2°C 91% 1.4 mph SW2.3 kmh SW 3.0 mph4.8 kmh 30.07 in1018.3 mb 0.00 in0.0 mm 0.00 in0.0 mm 0.00 in0.0 mm
11:29 PM 60.2°F15.7°C 57.5°F14.2°C 91% 1.4 mph WSW2.3 kmh WSW 4.0 mph6.4 kmh 30.07 in1018.3 mb 0.00 in0.0 mm 0.00 in0.0 mm 0.00 in0.0 mm
11:34 PM 60.3°F15.7°C 57.6°F14.2°C 91% 1.3 mph WSW2.1 kmh WSW 4.0 mph6.4 kmh 30.07 in1018.3 mb 0.00 in0.0 mm 0.00 in0.0 mm 0.00 in0.0 mm
11:39 PM 60.3°F15.7°C 57.6°F14.2°C 91% 1.5 mph WSW2.4 kmh WSW 4.0 mph6.4 kmh 30.07 in1018.3 mb 0.00 in0.0 mm 0.00 in0.0 mm 0.00 in0.0 mm
11:44 PM 60.2°F15.7°C 57.5°F14.2°C 91% 1.0 mph WSW1.6 kmh WSW 4.0 mph6.4 kmh 30.07 in1018.3 mb 0.00 in0.0 mm 0.00 in0.0 mm 0.00 in0.0 mm
11:49 PM 60.0°F15.6°C 57.3°F14.1°C 91% 1.6 mph WSW2.6 kmh WSW 4.0 mph6.4 kmh 30.07 in1018.3 mb 0.00 in0.0 mm 0.00 in0.0 mm 0.00 in0.0 mm
11:54 PM 59.7°F15.4°C 57.0°F13.9°C 91% 1.4 mph WSW2.3 kmh WSW 4.0 mph6.4 kmh 30.07 in1018.3 mb 0.00 in0.0 mm 0.00 in0.0 mm 0.00 in0.0 mm
11:59 PM 59.5°F15.3°C 57.1°F13.9°C 92% 1.2 mph SW1.9 kmh SW 4.0 mph6.4 kmh 30.07 in1018.3 mb 0.00 in0.0 mm 0.00 in0.0 mm 0.00 in0.0 mm